sensor_id;sensor_type;location;lat;lon;timestamp;temperature;humidity
39751;DHT22;37579;51.074;17.004;2022-08-19T00:01:23;27.70;58.70
39751;DHT22;37579;51.074;17.004;2022-08-19T00:03:49;27.80;58.70
39751;DHT22;37579;51.074;17.004;2022-08-19T00:06:15;27.80;58.80
39751;DHT22;37579;51.074;17.004;2022-08-19T00:08:41;27.70;58.90
39751;DHT22;37579;51.074;17.004;2022-08-19T00:11:06;27.70;58.90
39751;DHT22;37579;51.074;17.004;2022-08-19T00:13:33;27.70;58.90
39751;DHT22;37579;51.074;17.004;2022-08-19T00:15:59;27.60;59.00
39751;DHT22;37579;51.074;17.004;2022-08-19T00:18:26;27.70;59.00
39751;DHT22;37579;51.074;17.004;2022-08-19T00:20:52;27.70;59.00
39751;DHT22;37579;51.074;17.004;2022-08-19T00:23:18;27.70;59.10
39751;DHT22;37579;51.074;17.004;2022-08-19T00:25:44;27.60;59.00
39751;DHT22;37579;51.074;17.004;2022-08-19T00:28:10;27.60;58.90
39751;DHT22;37579;51.074;17.004;2022-08-19T00:30:36;27.60;58.90
39751;DHT22;37579;51.074;17.004;2022-08-19T00:33:02;27.60;59.10
39751;DHT22;37579;51.074;17.004;2022-08-19T00:35:28;27.60;59.20
39751;DHT22;37579;51.074;17.004;2022-08-19T00:37:55;27.60;59.80
39751;DHT22;37579;51.074;17.004;2022-08-19T00:40:21;27.60;59.10
39751;DHT22;37579;51.074;17.004;2022-08-19T00:42:47;27.50;59.00
39751;DHT22;37579;51.074;17.004;2022-08-19T00:45:23;27.50;59.10
39751;DHT22;37579;51.074;17.004;2022-08-19T00:47:49;27.50;59.10
39751;DHT22;37579;51.074;17.004;2022-08-19T00:50:20;27.50;59.20
39751;DHT22;37579;51.074;17.004;2022-08-19T00:52:49;27.50;59.30
39751;DHT22;37579;51.074;17.004;2022-08-19T00:55:24;27.50;59.40
39751;DHT22;37579;51.074;17.004;2022-08-19T00:58:04;27.50;59.50
39751;DHT22;37579;51.074;17.004;2022-08-19T01:00:33;27.50;59.40
39751;DHT22;37579;51.074;17.004;2022-08-19T01:03:04;27.60;59.80
39751;DHT22;37579;51.074;17.004;2022-08-19T01:05:30;27.50;60.40
39751;DHT22;37579;51.074;17.004;2022-08-19T01:07:57;27.40;60.70
39751;DHT22;37579;51.074;17.004;2022-08-19T01:10:27;27.40;61.00
39751;DHT22;37579;51.074;17.004;2022-08-19T01:12:55;27.40;61.30
39751;DHT22;37579;51.074;17.004;2022-08-19T01:15:27;27.30;61.50
39751;DHT22;37579;51.074;17.004;2022-08-19T01:17:55;27.30;61.40
39751;DHT22;37579;51.074;17.004;2022-08-19T01:20:23;27.30;61.60
39751;DHT22;37579;51.074;17.004;2022-08-19T01:22:55;27.30;61.90
39751;DHT22;37579;51.074;17.004;2022-08-19T01:25:41;27.20;62.00
39751;DHT22;37579;51.074;17.004;2022-08-19T01:28:18;27.30;62.00
39751;DHT22;37579;51.074;17.004;2022-08-19T01:30:45;27.30;61.70
39751;DHT22;37579;51.074;17.004;2022-08-19T01:33:11;27.30;61.60
39751;DHT22;37579;51.074;17.004;2022-08-19T01:35:37;27.20;61.50
39751;DHT22;37579;51.074;17.004;2022-08-19T01:38:06;27.20;61.30
39751;DHT22;37579;51.074;17.004;2022-08-19T01:40:33;27.20;61.30
39751;DHT22;37579;51.074;17.004;2022-08-19T01:43:00;27.20;61.30
39751;DHT22;37579;51.074;17.004;2022-08-19T01:45:28;27.20;61.30
39751;DHT22;37579;51.074;17.004;2022-08-19T01:47:54;27.10;61.40
39751;DHT22;37579;51.074;17.004;2022-08-19T01:50:20;27.10;61.40
39751;DHT22;37579;51.074;17.004;2022-08-19T01:52:47;27.10;61.50
39751;DHT22;37579;51.074;17.004;2022-08-19T01:55:16;27.10;61.70
39751;DHT22;37579;51.074;17.004;2022-08-19T01:57:47;27.00;61.80
39751;DHT22;37579;51.074;17.004;2022-08-19T02:00:18;27.00;61.80
39751;DHT22;37579;51.074;17.004;2022-08-19T02:02:44;27.00;61.90
39751;DHT22;37579;51.074;17.004;2022-08-19T02:05:11;27.00;61.80
39751;DHT22;37579;51.074;17.004;2022-08-19T02:07:39;27.00;61.80
39751;DHT22;37579;51.074;17.004;2022-08-19T02:10:08;26.90;61.90
39751;DHT22;37579;51.074;17.004;2022-08-19T02:12:35;26.80;62.10
39751;DHT22;37579;51.074;17.004;2022-08-19T02:15:01;26.80;62.10
39751;DHT22;37579;51.074;17.004;2022-08-19T02:17:28;26.80;62.10
39751;DHT22;37579;51.074;17.004;2022-08-19T02:19:55;26.90;62.00
39751;DHT22;37579;51.074;17.004;2022-08-19T02:22:22;26.90;62.10
39751;DHT22;37579;51.074;17.004;2022-08-19T02:24:48;26.90;62.00
39751;DHT22;37579;51.074;17.004;2022-08-19T02:27:14;26.80;62.10
39751;DHT22;37579;51.074;17.004;2022-08-19T02:29:40;26.70;62.20
39751;DHT22;37579;51.074;17.004;2022-08-19T02:32:07;26.70;62.30
39751;DHT22;37579;51.074;17.004;2022-08-19T02:34:33;26.70;62.20
39751;DHT22;37579;51.074;17.004;2022-08-19T02:36:59;26.70;62.30
39751;DHT22;37579;51.074;17.004;2022-08-19T02:39:24;26.70;62.40
39751;DHT22;37579;51.074;17.004;2022-08-19T02:41:52;26.70;62.40
39751;DHT22;37579;51.074;17.004;2022-08-19T02:44:18;26.60;62.60
39751;DHT22;37579;51.074;17.004;2022-08-19T02:46:45;26.60;62.60
39751;DHT22;37579;51.074;17.004;2022-08-19T02:49:12;26.60;62.60
39751;DHT22;37579;51.074;17.004;2022-08-19T02:51:43;26.60;62.50
39751;DHT22;37579;51.074;17.004;2022-08-19T02:54:11;26.60;62.40
39751;DHT22;37579;51.074;17.004;2022-08-19T02:56:39;26.60;62.50
39751;DHT22;37579;51.074;17.004;2022-08-19T02:59:06;26.60;62.40
39751;DHT22;37579;51.074;17.004;2022-08-19T03:01:34;26.60;62.40
39751;DHT22;37579;51.074;17.004;2022-08-19T03:04:03;26.60;62.60
39751;DHT22;37579;51.074;17.004;2022-08-19T03:06:29;26.50;62.70
39751;DHT22;37579;51.074;17.004;2022-08-19T03:08:56;26.50;62.80
39751;DHT22;37579;51.074;17.004;2022-08-19T03:11:24;26.50;62.70
39751;DHT22;37579;51.074;17.004;2022-08-19T03:13:51;26.50;62.80
39751;DHT22;37579;51.074;17.004;2022-08-19T03:16:18;26.40;63.10
39751;DHT22;37579;51.074;17.004;2022-08-19T03:18:44;26.40;63.00
39751;DHT22;37579;51.074;17.004;2022-08-19T03:21:16;26.50;63.00
39751;DHT22;37579;51.074;17.004;2022-08-19T03:23:41;26.40;62.90
39751;DHT22;37579;51.074;17.004;2022-08-19T03:26:07;26.40;63.10
39751;DHT22;37579;51.074;17.004;2022-08-19T03:28:33;26.40;63.00
39751;DHT22;37579;51.074;17.004;2022-08-19T03:31:02;26.50;62.80
39751;DHT22;37579;51.074;17.004;2022-08-19T03:33:28;26.50;62.90
39751;DHT22;37579;51.074;17.004;2022-08-19T03:36:12;26.40;63.10
39751;DHT22;37579;51.074;17.004;2022-08-19T03:38:41;26.30;63.00
39751;DHT22;37579;51.074;17.004;2022-08-19T03:41:10;26.30;63.20
39751;DHT22;37579;51.074;17.004;2022-08-19T03:43:38;26.20;63.30
39751;DHT22;37579;51.074;17.004;2022-08-19T03:46:07;26.20;63.40
39751;DHT22;37579;51.074;17.004;2022-08-19T03:48:35;26.30;63.40
39751;DHT22;37579;51.074;17.004;2022-08-19T03:51:02;26.20;63.60
39751;DHT22;37579;51.074;17.004;2022-08-19T03:53:29;26.10;63.70
39751;DHT22;37579;51.074;17.004;2022-08-19T03:55:55;26.10;63.80
39751;DHT22;37579;51.074;17.004;2022-08-19T03:58:22;26.10;63.90
39751;DHT22;37579;51.074;17.004;2022-08-19T04:00:48;26.10;63.90
39751;DHT22;37579;51.074;17.004;2022-08-19T04:03:14;26.10;64.10
39751;DHT22;37579;51.074;17.004;2022-08-19T04:05:40;26.10;64.10
39751;DHT22;37579;51.074;17.004;2022-08-19T04:08:06;26.10;64.20
39751;DHT22;37579;51.074;17.004;2022-08-19T04:10:41;26.10;64.20
39751;DHT22;37579;51.074;17.004;2022-08-19T04:13:07;26.10;64.30
39751;DHT22;37579;51.074;17.004;2022-08-19T04:15:42;26.10;64.30
39751;DHT22;37579;51.074;17.004;2022-08-19T04:18:09;26.10;64.40
39751;DHT22;37579;51.074;17.004;2022-08-19T04:20:48;26.10;64.50
39751;DHT22;37579;51.074;17.004;2022-08-19T04:23:14;26.10;64.50
39751;DHT22;37579;51.074;17.004;2022-08-19T04:25:42;26.10;64.40
39751;DHT22;37579;51.074;17.004;2022-08-19T04:28:09;26.00;64.70
39751;DHT22;37579;51.074;17.004;2022-08-19T04:30:42;25.90;64.90
39751;DHT22;37579;51.074;17.004;2022-08-19T04:33:08;26.00;65.00
39751;DHT22;37579;51.074;17.004;2022-08-19T04:35:40;26.00;64.90
39751;DHT22;37579;51.074;17.004;2022-08-19T04:38:07;26.00;64.90
39751;DHT22;37579;51.074;17.004;2022-08-19T04:40:34;26.00;64.80
39751;DHT22;37579;51.074;17.004;2022-08-19T04:43:19;26.10;64.50
39751;DHT22;37579;51.074;17.004;2022-08-19T04:45:45;26.10;64.70
39751;DHT22;37579;51.074;17.004;2022-08-19T04:48:12;26.10;64.70
39751;DHT22;37579;51.074;17.004;2022-08-19T04:50:42;26.10;64.80
39751;DHT22;37579;51.074;17.004;2022-08-19T04:53:09;26.20;64.80
39751;DHT22;37579;51.074;17.004;2022-08-19T04:55:37;26.20;64.60
39751;DHT22;37579;51.074;17.004;2022-08-19T04:58:03;26.20;65.00
39751;DHT22;37579;51.074;17.004;2022-08-19T05:00:29;26.20;65.10
39751;DHT22;37579;51.074;17.004;2022-08-19T05:02:55;26.20;65.30
39751;DHT22;37579;51.074;17.004;2022-08-19T05:05:20;26.10;65.60
39751;DHT22;37579;51.074;17.004;2022-08-19T05:07:47;26.10;65.70
39751;DHT22;37579;51.074;17.004;2022-08-19T05:10:12;26.10;65.90
39751;DHT22;37579;51.074;17.004;2022-08-19T05:12:38;26.20;65.80
39751;DHT22;37579;51.074;17.004;2022-08-19T05:15:05;26.10;66.00
39751;DHT22;37579;51.074;17.004;2022-08-19T05:17:34;26.20;65.90
39751;DHT22;37579;51.074;17.004;2022-08-19T05:20:00;26.20;65.80
39751;DHT22;37579;51.074;17.004;2022-08-19T05:22:45;26.20;66.10
39751;DHT22;37579;51.074;17.004;2022-08-19T05:25:15;26.20;66.40
39751;DHT22;37579;51.074;17.004;2022-08-19T05:27:42;26.20;66.30
39751;DHT22;37579;51.074;17.004;2022-08-19T05:30:09;26.40;66.30
39751;DHT22;37579;51.074;17.004;2022-08-19T05:32:35;26.30;66.20
39751;DHT22;37579;51.074;17.004;2022-08-19T05:35:01;26.40;66.20
39751;DHT22;37579;51.074;17.004;2022-08-19T05:37:27;26.30;66.30
39751;DHT22;37579;51.074;17.004;2022-08-19T05:39:53;26.30;66.20
39751;DHT22;37579;51.074;17.004;2022-08-19T05:42:20;26.30;66.30
39751;DHT22;37579;51.074;17.004;2022-08-19T05:44:47;26.30;66.30
39751;DHT22;37579;51.074;17.004;2022-08-19T05:47:15;26.40;66.20
39751;DHT22;37579;51.074;17.004;2022-08-19T05:49:42;26.40;66.00
39751;DHT22;37579;51.074;17.004;2022-08-19T05:52:11;26.50;65.80
39751;DHT22;37579;51.074;17.004;2022-08-19T05:54:38;26.60;65.60
39751;DHT22;37579;51.074;17.004;2022-08-19T05:57:06;26.70;65.20
39751;DHT22;37579;51.074;17.004;2022-08-19T05:59:32;26.90;64.90
39751;DHT22;37579;51.074;17.004;2022-08-19T06:02:01;27.00;64.90
39751;DHT22;37579;51.074;17.004;2022-08-19T06:04:27;27.00;64.90
39751;DHT22;37579;51.074;17.004;2022-08-19T06:06:54;27.00;64.80
39751;DHT22;37579;51.074;17.004;2022-08-19T06:09:21;27.00;64.90
39751;DHT22;37579;51.074;17.004;2022-08-19T06:11:53;27.20;64.80
39751;DHT22;37579;51.074;17.004;2022-08-19T06:14:24;27.30;64.30
39751;DHT22;37579;51.074;17.004;2022-08-19T06:16:51;27.30;64.20
39751;DHT22;37579;51.074;17.004;2022-08-19T06:19:19;27.30;64.40
39751;DHT22;37579;51.074;17.004;2022-08-19T06:21:48;27.20;64.60
39751;DHT22;37579;51.074;17.004;2022-08-19T06:24:17;27.30;64.70
39751;DHT22;37579;51.074;17.004;2022-08-19T06:26:46;27.40;64.70
39751;DHT22;37579;51.074;17.004;2022-08-19T06:29:13;27.40;64.60
39751;DHT22;37579;51.074;17.004;2022-08-19T06:31:45;27.50;64.00
39751;DHT22;37579;51.074;17.004;2022-08-19T06:34:11;27.60;64.30
39751;DHT22;37579;51.074;17.004;2022-08-19T06:36:41;27.70;64.00
39751;DHT22;37579;51.074;17.004;2022-08-19T06:39:12;27.80;63.40
39751;DHT22;37579;51.074;17.004;2022-08-19T06:41:42;27.90;62.80
39751;DHT22;37579;51.074;17.004;2022-08-19T06:44:16;28.00;63.00
39751;DHT22;37579;51.074;17.004;2022-08-19T06:46:42;28.10;62.60
39751;DHT22;37579;51.074;17.004;2022-08-19T06:49:09;28.20;61.90
39751;DHT22;37579;51.074;17.004;2022-08-19T06:51:40;28.10;61.60
39751;DHT22;37579;51.074;17.004;2022-08-19T06:54:06;28.20;61.50
39751;DHT22;37579;51.074;17.004;2022-08-19T06:56:32;28.30;61.60
39751;DHT22;37579;51.074;17.004;2022-08-19T06:59:06;28.30;61.30
39751;DHT22;37579;51.074;17.004;2022-08-19T07:01:37;28.40;61.30
39751;DHT22;37579;51.074;17.004;2022-08-19T07:04:05;28.40;60.90
39751;DHT22;37579;51.074;17.004;2022-08-19T07:06:31;28.50;60.90
39751;DHT22;37579;51.074;17.004;2022-08-19T07:08:57;28.60;60.70
39751;DHT22;37579;51.074;17.004;2022-08-19T07:11:24;28.60;60.60
39751;DHT22;37579;51.074;17.004;2022-08-19T07:13:50;28.70;61.10
39751;DHT22;37579;51.074;17.004;2022-08-19T07:16:18;28.70;60.70
39751;DHT22;37579;51.074;17.004;2022-08-19T07:18:47;28.80;60.60
39751;DHT22;37579;51.074;17.004;2022-08-19T07:21:21;28.80;60.50
39751;DHT22;37579;51.074;17.004;2022-08-19T07:23:48;28.90;60.50
39751;DHT22;37579;51.074;17.004;2022-08-19T07:26:30;28.90;60.50
39751;DHT22;37579;51.074;17.004;2022-08-19T07:28:57;28.90;60.50
39751;DHT22;37579;51.074;17.004;2022-08-19T07:31:26;29.00;60.70
39751;DHT22;37579;51.074;17.004;2022-08-19T07:33:54;29.00;60.60
39751;DHT22;37579;51.074;17.004;2022-08-19T07:36:26;29.10;60.80
39751;DHT22;37579;51.074;17.004;2022-08-19T07:38:59;29.10;60.90
39751;DHT22;37579;51.074;17.004;2022-08-19T07:41:27;29.10;60.60
39751;DHT22;37579;51.074;17.004;2022-08-19T07:43:54;29.20;60.80
39751;DHT22;37579;51.074;17.004;2022-08-19T07:46:21;29.20;60.60
39751;DHT22;37579;51.074;17.004;2022-08-19T07:48:48;29.20;60.60
39751;DHT22;37579;51.074;17.004;2022-08-19T07:51:17;29.20;60.50
39751;DHT22;37579;51.074;17.004;2022-08-19T07:53:43;29.30;60.70
39751;DHT22;37579;51.074;17.004;2022-08-19T07:56:11;29.30;60.90
39751;DHT22;37579;51.074;17.004;2022-08-19T07:58:41;29.30;60.60
39751;DHT22;37579;51.074;17.004;2022-08-19T08:01:09;29.40;60.60
39751;DHT22;37579;51.074;17.004;2022-08-19T08:03:37;29.40;60.40
39751;DHT22;37579;51.074;17.004;2022-08-19T08:06:22;29.40;59.20
39751;DHT22;37579;51.074;17.004;2022-08-19T08:09:07;29.40;59.40
39751;DHT22;37579;51.074;17.004;2022-08-19T08:12:02;29.30;59.00
39751;DHT22;37579;51.074;17.004;2022-08-19T08:16:58;29.40;59.30
39751;DHT22;37579;51.074;17.004;2022-08-19T08:19:25;29.40;59.40
39751;DHT22;37579;51.074;17.004;2022-08-19T08:21:56;29.50;59.40
39751;DHT22;37579;51.074;17.004;2022-08-19T08:24:22;29.50;59.40
39751;DHT22;37579;51.074;17.004;2022-08-19T08:26:48;29.70;59.10
39751;DHT22;37579;51.074;17.004;2022-08-19T08:29:14;29.70;58.90
39751;DHT22;37579;51.074;17.004;2022-08-19T08:31:42;29.60;58.40
39751;DHT22;37579;51.074;17.004;2022-08-19T08:34:09;29.50;58.40
39751;DHT22;37579;51.074;17.004;2022-08-19T08:36:44;29.50;58.60
39751;DHT22;37579;51.074;17.004;2022-08-19T08:39:12;29.50;58.90
39751;DHT22;37579;51.074;17.004;2022-08-19T08:44:46;29.50;59.40
39751;DHT22;37579;51.074;17.004;2022-08-19T08:47:17;29.60;59.20
39751;DHT22;37579;51.074;17.004;2022-08-19T08:49:55;29.60;58.70
39751;DHT22;37579;51.074;17.004;2022-08-19T08:52:23;29.60;58.50
39751;DHT22;37579;51.074;17.004;2022-08-19T08:54:53;29.60;58.60
39751;DHT22;37579;51.074;17.004;2022-08-19T08:57:27;29.60;58.50
39751;DHT22;37579;51.074;17.004;2022-08-19T08:59:54;29.60;58.50
39751;DHT22;37579;51.074;17.004;2022-08-19T09:02:22;29.60;58.60
39751;DHT22;37579;51.074;17.004;2022-08-19T09:04:48;29.60;58.60
39751;DHT22;37579;51.074;17.004;2022-08-19T09:09:51;29.70;58.00
39751;DHT22;37579;51.074;17.004;2022-08-19T09:14:57;29.70;55.30
39751;DHT22;37579;51.074;17.004;2022-08-19T09:17:26;29.80;56.40
39751;DHT22;37579;51.074;17.004;2022-08-19T09:20:00;29.80;57.00
39751;DHT22;37579;51.074;17.004;2022-08-19T09:22:31;29.70;57.20
39751;DHT22;37579;51.074;17.004;2022-08-19T09:24:57;29.70;57.60
39751;DHT22;37579;51.074;17.004;2022-08-19T09:27:23;29.70;57.70
39751;DHT22;37579;51.074;17.004;2022-08-19T09:29:51;29.70;57.60
39751;DHT22;37579;51.074;17.004;2022-08-19T09:32:17;29.60;57.30
39751;DHT22;37579;51.074;17.004;2022-08-19T09:34:43;29.60;57.50
39751;DHT22;37579;51.074;17.004;2022-08-19T09:37:10;29.60;57.70
39751;DHT22;37579;51.074;17.004;2022-08-19T09:39:36;29.70;58.00
39751;DHT22;37579;51.074;17.004;2022-08-19T09:42:02;29.70;58.00
39751;DHT22;37579;51.074;17.004;2022-08-19T09:44:29;29.70;58.30
39751;DHT22;37579;51.074;17.004;2022-08-19T09:46:54;29.70;58.50
39751;DHT22;37579;51.074;17.004;2022-08-19T09:49:21;29.80;59.20
39751;DHT22;37579;51.074;17.004;2022-08-19T09:51:51;29.80;58.70
39751;DHT22;37579;51.074;17.004;2022-08-19T09:54:19;29.80;58.70
39751;DHT22;37579;51.074;17.004;2022-08-19T09:56:44;29.80;58.60
39751;DHT22;37579;51.074;17.004;2022-08-19T09:59:10;29.80;59.60
39751;DHT22;37579;51.074;17.004;2022-08-19T10:01:37;29.70;59.00
39751;DHT22;37579;51.074;17.004;2022-08-19T10:04:03;29.80;58.40
39751;DHT22;37579;51.074;17.004;2022-08-19T10:06:37;29.80;58.60
39751;DHT22;37579;51.074;17.004;2022-08-19T10:09:04;29.70;58.80
39751;DHT22;37579;51.074;17.004;2022-08-19T10:11:33;29.70;59.60
39751;DHT22;37579;51.074;17.004;2022-08-19T10:13:59;29.60;58.90
39751;DHT22;37579;51.074;17.004;2022-08-19T10:16:26;29.60;58.90
39751;DHT22;37579;51.074;17.004;2022-08-19T10:18:53;29.60;59.00
39751;DHT22;37579;51.074;17.004;2022-08-19T10:21:25;29.60;58.90
39751;DHT22;37579;51.074;17.004;2022-08-19T10:23:55;29.60;59.00
39751;DHT22;37579;51.074;17.004;2022-08-19T10:26:26;29.60;59.10
39751;DHT22;37579;51.074;17.004;2022-08-19T10:28:53;29.70;59.80
39751;DHT22;37579;51.074;17.004;2022-08-19T10:31:25;29.70;60.10
39751;DHT22;37579;51.074;17.004;2022-08-19T10:33:52;29.60;60.00
39751;DHT22;37579;51.074;17.004;2022-08-19T10:36:26;29.60;60.10
39751;DHT22;37579;51.074;17.004;2022-08-19T10:38:54;29.60;60.10
39751;DHT22;37579;51.074;17.004;2022-08-19T10:41:24;29.60;59.80
39751;DHT22;37579;51.074;17.004;2022-08-19T10:43:52;29.60;59.80
39751;DHT22;37579;51.074;17.004;2022-08-19T10:46:21;29.70;59.90
39751;DHT22;37579;51.074;17.004;2022-08-19T10:48:49;29.70;59.80
39751;DHT22;37579;51.074;17.004;2022-08-19T10:51:15;29.70;59.70
39751;DHT22;37579;51.074;17.004;2022-08-19T10:54:01;29.70;59.90
39751;DHT22;37579;51.074;17.004;2022-08-19T10:56:27;29.70;60.00
39751;DHT22;37579;51.074;17.004;2022-08-19T10:59:12;29.80;59.80
39751;DHT22;37579;51.074;17.004;2022-08-19T11:01:40;29.80;59.80
39751;DHT22;37579;51.074;17.004;2022-08-19T11:04:06;29.80;60.00
39751;DHT22;37579;51.074;17.004;2022-08-19T11:06:36;29.90;60.10
39751;DHT22;37579;51.074;17.004;2022-08-19T11:09:02;30.00;60.10
39751;DHT22;37579;51.074;17.004;2022-08-19T11:11:28;30.00;59.70
39751;DHT22;37579;51.074;17.004;2022-08-19T11:13:54;30.10;59.30
39751;DHT22;37579;51.074;17.004;2022-08-19T11:16:23;30.20;54.50
39751;DHT22;37579;51.074;17.004;2022-08-19T11:18:51;30.40;53.00
39751;DHT22;37579;51.074;17.004;2022-08-19T11:21:30;30.50;53.50
39751;DHT22;37579;51.074;17.004;2022-08-19T11:24:02;30.40;53.50
39751;DHT22;37579;51.074;17.004;2022-08-19T11:26:29;30.50;52.10
39751;DHT22;37579;51.074;17.004;2022-08-19T11:28:56;30.60;52.20
39751;DHT22;37579;51.074;17.004;2022-08-19T11:31:25;30.70;51.40
39751;DHT22;37579;51.074;17.004;2022-08-19T11:33:51;31.00;47.90
39751;DHT22;37579;51.074;17.004;2022-08-19T11:36:19;31.10;48.80
39751;DHT22;37579;51.074;17.004;2022-08-19T11:38:46;31.10;47.20
39751;DHT22;37579;51.074;17.004;2022-08-19T11:41:15;31.00;48.40
39751;DHT22;37579;51.074;17.004;2022-08-19T11:43:41;30.90;49.60
39751;DHT22;37579;51.074;17.004;2022-08-19T11:46:09;30.90;47.40
39751;DHT22;37579;51.074;17.004;2022-08-19T11:48:36;30.90;48.40
39751;DHT22;37579;51.074;17.004;2022-08-19T11:51:13;30.80;49.30
39751;DHT22;37579;51.074;17.004;2022-08-19T11:53:39;30.70;49.10
39751;DHT22;37579;51.074;17.004;2022-08-19T11:56:06;30.60;49.00
39751;DHT22;37579;51.074;17.004;2022-08-19T11:58:32;30.50;49.30
39751;DHT22;37579;51.074;17.004;2022-08-19T12:00:59;30.50;48.90
39751;DHT22;37579;51.074;17.004;2022-08-19T12:03:25;30.50;48.40
39751;DHT22;37579;51.074;17.004;2022-08-19T12:05:51;30.60;48.30
39751;DHT22;37579;51.074;17.004;2022-08-19T12:08:17;30.50;48.50
39751;DHT22;37579;51.074;17.004;2022-08-19T12:10:43;30.60;49.20
39751;DHT22;37579;51.074;17.004;2022-08-19T12:13:11;30.70;55.20
39751;DHT22;37579;51.074;17.004;2022-08-19T12:15:40;30.60;49.90
39751;DHT22;37579;51.074;17.004;2022-08-19T12:18:07;30.60;50.40
39751;DHT22;37579;51.074;17.004;2022-08-19T12:20:36;30.50;50.50
39751;DHT22;37579;51.074;17.004;2022-08-19T12:23:03;30.50;49.70
39751;DHT22;37579;51.074;17.004;2022-08-19T12:25:29;30.50;49.10
39751;DHT22;37579;51.074;17.004;2022-08-19T12:27:54;30.50;48.80
39751;DHT22;37579;51.074;17.004;2022-08-19T12:30:20;30.50;48.30
39751;DHT22;37579;51.074;17.004;2022-08-19T12:32:46;30.50;48.60
39751;DHT22;37579;51.074;17.004;2022-08-19T12:35:11;30.50;48.40
39751;DHT22;37579;51.074;17.004;2022-08-19T12:37:38;30.50;48.00
39751;DHT22;37579;51.074;17.004;2022-08-19T12:40:05;30.40;48.30
39751;DHT22;37579;51.074;17.004;2022-08-19T12:42:30;30.40;48.40
39751;DHT22;37579;51.074;17.004;2022-08-19T12:44:56;30.40;48.30
39751;DHT22;37579;51.074;17.004;2022-08-19T12:47:22;30.40;47.80
39751;DHT22;37579;51.074;17.004;2022-08-19T12:49:48;30.40;47.90
39751;DHT22;37579;51.074;17.004;2022-08-19T12:52:14;30.40;47.80
39751;DHT22;37579;51.074;17.004;2022-08-19T12:54:42;30.40;48.10
39751;DHT22;37579;51.074;17.004;2022-08-19T12:57:09;30.40;47.70
39751;DHT22;37579;51.074;17.004;2022-08-19T12:59:36;30.40;48.10
39751;DHT22;37579;51.074;17.004;2022-08-19T13:02:07;30.40;47.60
39751;DHT22;37579;51.074;17.004;2022-08-19T13:04:33;30.40;47.30
39751;DHT22;37579;51.074;17.004;2022-08-19T13:07:06;30.30;47.20
39751;DHT22;37579;51.074;17.004;2022-08-19T13:09:33;30.40;47.10
39751;DHT22;37579;51.074;17.004;2022-08-19T13:11:59;30.30;47.20
39751;DHT22;37579;51.074;17.004;2022-08-19T13:14:27;30.40;47.20
39751;DHT22;37579;51.074;17.004;2022-08-19T13:16:54;30.40;47.10
39751;DHT22;37579;51.074;17.004;2022-08-19T13:19:19;30.40;47.30
39751;DHT22;37579;51.074;17.004;2022-08-19T13:21:50;30.40;47.10
39751;DHT22;37579;51.074;17.004;2022-08-19T13:24:16;30.30;47.10
39751;DHT22;37579;51.074;17.004;2022-08-19T13:26:42;30.40;47.20
39751;DHT22;37579;51.074;17.004;2022-08-19T13:29:08;30.30;47.00
39751;DHT22;37579;51.074;17.004;2022-08-19T13:31:52;30.40;47.10
39751;DHT22;37579;51.074;17.004;2022-08-19T13:34:36;30.40;47.30
39751;DHT22;37579;51.074;17.004;2022-08-19T13:37:03;30.40;47.20
39751;DHT22;37579;51.074;17.004;2022-08-19T13:39:33;30.40;47.30
39751;DHT22;37579;51.074;17.004;2022-08-19T13:41:59;30.30;47.20
39751;DHT22;37579;51.074;17.004;2022-08-19T13:44:27;30.30;47.40
39751;DHT22;37579;51.074;17.004;2022-08-19T13:46:59;30.30;47.60
39751;DHT22;37579;51.074;17.004;2022-08-19T13:49:28;30.30;47.80
39751;DHT22;37579;51.074;17.004;2022-08-19T13:51:56;30.30;47.60
39751;DHT22;37579;51.074;17.004;2022-08-19T13:54:22;30.30;47.30
39751;DHT22;37579;51.074;17.004;2022-08-19T13:56:48;30.30;47.50
39751;DHT22;37579;51.074;17.004;2022-08-19T13:59:14;30.30;47.50
39751;DHT22;37579;51.074;17.004;2022-08-19T14:01:41;30.30;47.60
39751;DHT22;37579;51.074;17.004;2022-08-19T14:04:07;30.30;47.70
39751;DHT22;37579;51.074;17.004;2022-08-19T14:06:33;30.30;47.70
39751;DHT22;37579;51.074;17.004;2022-08-19T14:08:59;30.30;47.90
39751;DHT22;37579;51.074;17.004;2022-08-19T14:11:25;30.30;47.90
39751;DHT22;37579;51.074;17.004;2022-08-19T14:13:51;30.30;48.00
39751;DHT22;37579;51.074;17.004;2022-08-19T14:16:17;30.30;48.10
39751;DHT22;37579;51.074;17.004;2022-08-19T14:18:43;30.30;48.20
39751;DHT22;37579;51.074;17.004;2022-08-19T14:21:19;30.30;48.20
39751;DHT22;37579;51.074;17.004;2022-08-19T14:23:46;30.30;48.30
39751;DHT22;37579;51.074;17.004;2022-08-19T14:26:15;30.30;48.80
39751;DHT22;37579;51.074;17.004;2022-08-19T14:28:42;30.30;49.20
39751;DHT22;37579;51.074;17.004;2022-08-19T14:31:10;30.20;49.50
39751;DHT22;37579;51.074;17.004;2022-08-19T14:33:36;30.20;50.00
39751;DHT22;37579;51.074;17.004;2022-08-19T14:36:03;30.20;50.20
39751;DHT22;37579;51.074;17.004;2022-08-19T14:38:29;30.20;50.60
39751;DHT22;37579;51.074;17.004;2022-08-19T14:41:06;30.20;50.80
39751;DHT22;37579;51.074;17.004;2022-08-19T14:43:33;30.20;51.00
39751;DHT22;37579;51.074;17.004;2022-08-19T14:45:59;30.20;51.20
39751;DHT22;37579;51.074;17.004;2022-08-19T14:48:25;30.10;51.50
39751;DHT22;37579;51.074;17.004;2022-08-19T14:50:52;30.10;51.70
39751;DHT22;37579;51.074;17.004;2022-08-19T14:53:17;30.10;52.00
39751;DHT22;37579;51.074;17.004;2022-08-19T14:55:44;30.10;52.10
39751;DHT22;37579;51.074;17.004;2022-08-19T14:58:12;30.10;52.40
39751;DHT22;37579;51.074;17.004;2022-08-19T15:00:38;30.10;52.40
39751;DHT22;37579;51.074;17.004;2022-08-19T15:03:03;30.10;52.50
39751;DHT22;37579;51.074;17.004;2022-08-19T15:05:29;30.10;52.80
39751;DHT22;37579;51.074;17.004;2022-08-19T15:07:55;30.10;52.80
39751;DHT22;37579;51.074;17.004;2022-08-19T15:10:23;30.10;52.90
39751;DHT22;37579;51.074;17.004;2022-08-19T15:12:50;30.10;53.10
39751;DHT22;37579;51.074;17.004;2022-08-19T15:15:16;30.10;53.30
39751;DHT22;37579;51.074;17.004;2022-08-19T15:17:44;30.00;54.90
39751;DHT22;37579;51.074;17.004;2022-08-19T15:20:11;29.90;55.60
39751;DHT22;37579;51.074;17.004;2022-08-19T15:22:38;29.90;56.00
39751;DHT22;37579;51.074;17.004;2022-08-19T15:25:06;29.90;56.30
39751;DHT22;37579;51.074;17.004;2022-08-19T15:27:32;29.80;56.40
39751;DHT22;37579;51.074;17.004;2022-08-19T15:29:58;29.80;56.60
39751;DHT22;37579;51.074;17.004;2022-08-19T15:32:24;29.80;56.80